createdAt,value
2019-05-03T00:01:12.886Z,58.69
2019-05-03T00:03:44.009Z,58.87
2019-05-03T00:06:15.445Z,58.48
2019-05-03T00:08:46.846Z,58.54
2019-05-03T00:11:17.844Z,59.00
2019-05-03T00:13:48.859Z,59.15
2019-05-03T00:16:32.462Z,57.96
2019-05-03T00:19:03.404Z,58.18
2019-05-03T00:21:37.725Z,57.78
2019-05-03T00:24:08.919Z,57.60
2019-05-03T00:26:39.993Z,57.67
2019-05-03T00:29:12.635Z,57.76
2019-05-03T00:31:44.015Z,56.93
2019-05-03T00:34:25.224Z,57.57
2019-05-03T00:36:57.811Z,58.41
2019-05-03T00:39:32.343Z,56.80
2019-05-03T00:42:03.451Z,56.92
2019-05-03T00:44:34.371Z,57.00
2019-05-03T00:47:05.443Z,57.39
2019-05-03T00:49:36.415Z,57.51
2019-05-03T00:52:07.293Z,57.49
2019-05-03T00:54:38.567Z,57.78
2019-05-03T00:57:09.433Z,57.76
2019-05-03T00:59:42.053Z,57.07
2019-05-03T01:02:13.141Z,56.74
2019-05-03T01:04:44.272Z,57.03
2019-05-03T01:07:15.195Z,57.39
2019-05-03T01:09:46.279Z,56.42
2019-05-03T01:12:17.205Z,56.72
2019-05-03T01:14:51.509Z,57.42
2019-05-03T01:17:22.663Z,57.36
2019-05-03T01:19:53.753Z,57.47
2019-05-03T01:22:24.861Z,57.83
2019-05-03T01:24:55.848Z,56.46
2019-05-03T01:27:27.143Z,57.08
2019-05-03T01:29:58.347Z,57.04
2019-05-03T01:32:29.333Z,56.82
2019-05-03T01:35:00.249Z,57.10
2019-05-03T01:37:31.909Z,57.79
2019-05-03T01:40:03.021Z,57.84
2019-05-03T01:42:34.090Z,58.40
2019-05-03T01:45:07.053Z,59.05
2019-05-03T01:47:49.839Z,60.02
2019-05-03T01:50:27.994Z,60.27
2019-05-03T01:53:06.398Z,60.81
2019-05-03T01:55:52.595Z,61.37
2019-05-03T01:58:26.953Z,61.10
2019-05-03T02:01:06.658Z,60.84
2019-05-03T02:03:55.404Z,61.62
2019-05-03T02:06:26.666Z,61.59
2019-05-03T02:08:57.708Z,61.09
2019-05-03T02:11:28.954Z,61.41
2019-05-03T02:14:01.724Z,61.68
2019-05-03T02:16:33.303Z,62.12
2019-05-03T02:19:04.360Z,62.30
2019-05-03T02:21:35.234Z,62.24
2019-05-03T02:24:06.390Z,62.34
2019-05-03T02:26:37.458Z,62.20
2019-05-03T02:29:08.642Z,61.68
2019-05-03T02:31:39.562Z,62.22
2019-05-03T02:34:12.551Z,64.51
2019-05-03T02:36:43.418Z,62.41
2019-05-03T02:39:16.649Z,63.01
2019-05-03T02:41:49.554Z,62.21
2019-05-03T02:44:22.081Z,62.19
2019-05-03T02:47:00.670Z,63.00
2019-05-03T02:49:35.236Z,63.72
2019-05-03T02:52:06.776Z,64.16
2019-05-03T02:54:37.954Z,64.22
2019-05-03T02:57:08.808Z,64.40
2019-05-03T02:59:40.063Z,63.28
2019-05-03T03:02:11.054Z,64.99
2019-05-03T03:04:42.107Z,66.67
2019-05-03T03:07:15.148Z,67.92
2019-05-03T03:09:47.465Z,69.01
2019-05-03T03:12:25.755Z,70.19
2019-05-03T03:14:59.962Z,68.67
2019-05-03T03:17:36.435Z,64.65
2019-05-03T03:20:09.104Z,65.30
2019-05-03T03:22:45.612Z,63.98
2019-05-03T03:25:17.883Z,65.57
2019-05-03T03:27:52.672Z,67.34
2019-05-03T03:30:48.859Z,68.13
2019-05-03T03:33:19.977Z,68.70
2019-05-03T03:35:50.814Z,70.07
2019-05-03T03:38:21.970Z,69.54
2019-05-03T03:40:56.453Z,68.82
2019-05-03T03:43:28.280Z,68.39
2019-05-03T03:46:00.002Z,68.97
2019-05-03T03:48:35.338Z,69.86
2019-05-03T03:51:07.384Z,69.75
2019-05-03T03:53:40.008Z,69.21
2019-05-03T03:56:12.810Z,69.26
2019-05-03T03:58:46.411Z,70.09
2019-05-03T04:01:16.784Z,68.85
2019-05-03T04:03:47.864Z,69.82
2019-05-03T04:06:19.057Z,70.14
2019-05-03T04:08:50.111Z,69.69
2019-05-03T04:11:21.442Z,69.30
2019-05-03T04:13:52.830Z,68.98
2019-05-03T04:16:41.893Z,69.41
2019-05-03T04:19:17.448Z,68.44
2019-05-03T04:21:48.525Z,69.19
2019-05-03T04:24:20.128Z,68.10
2019-05-03T04:26:52.923Z,68.30
2019-05-03T04:29:25.411Z,68.63
2019-05-03T04:31:56.720Z,68.54
2019-05-03T04:34:27.732Z,66.35
2019-05-03T04:36:58.705Z,66.16
2019-05-03T04:39:29.750Z,66.69
2019-05-03T04:42:00.740Z,65.53
2019-05-03T04:44:31.654Z,64.94
2019-05-03T04:47:02.653Z,64.87
2019-05-03T04:49:35.975Z,64.29
2019-05-03T04:52:07.953Z,66.35
2019-05-03T04:54:40.574Z,66.27
2019-05-03T04:57:11.508Z,65.80
2019-05-03T04:59:45.000Z,66.35
2019-05-03T05:02:16.087Z,66.71
2019-05-03T05:04:47.215Z,67.60
2019-05-03T05:07:18.313Z,68.11
2019-05-03T05:09:49.329Z,67.88
2019-05-03T05:12:20.231Z,68.91
2019-05-03T05:14:51.381Z,70.20
2019-05-03T05:17:26.273Z,70.10
2019-05-03T05:19:58.363Z,71.10
2019-05-03T05:22:34.998Z,69.78
2019-05-03T05:25:21.044Z,68.45
2019-05-03T05:28:04.758Z,68.38
2019-05-03T05:30:35.761Z,67.69
2019-05-03T05:33:08.462Z,68.89
2019-05-03T05:35:39.341Z,69.33
2019-05-03T05:38:10.395Z,69.74
2019-05-03T05:40:41.365Z,68.83
2019-05-03T05:43:12.358Z,69.00
2019-05-03T05:45:44.953Z,68.69
2019-05-03T05:48:24.611Z,70.07
2019-05-03T05:50:55.737Z,71.27
2019-05-03T05:53:26.756Z,70.02
2019-05-03T05:56:06.442Z,71.02
2019-05-03T05:58:38.495Z,71.04
2019-05-03T06:01:14.579Z,71.91
2019-05-03T06:03:45.872Z,72.15
2019-05-03T06:06:18.421Z,73.61
2019-05-03T06:08:54.772Z,72.89
2019-05-03T06:11:30.901Z,72.03
2019-05-03T06:14:09.709Z,71.63
2019-05-03T06:16:42.268Z,71.51
2019-05-03T06:19:14.891Z,71.49
2019-05-03T06:21:47.943Z,70.55
2019-05-03T06:24:24.972Z,71.15
2019-05-03T06:26:55.911Z,71.57
2019-05-03T06:29:26.845Z,70.53
2019-05-03T06:32:02.232Z,71.42
2019-05-03T06:34:33.094Z,70.54
2019-05-03T06:37:11.568Z,72.38
2019-05-03T06:39:42.541Z,70.90
2019-05-03T06:42:17.490Z,70.62
2019-05-03T06:44:46.051Z,69.13
2019-05-03T06:47:17.230Z,71.10
2019-05-03T06:49:48.618Z,69.94
2019-05-03T06:52:24.806Z,70.06
2019-05-03T06:54:52.274Z,70.86
2019-05-03T06:57:25.232Z,70.62
2019-05-03T07:00:15.620Z,70.44
2019-05-03T07:02:46.618Z,70.07
2019-05-03T07:05:31.762Z,70.09
2019-05-03T07:08:05.174Z,70.42
2019-05-03T07:10:38.005Z,71.55
2019-05-03T07:13:09.219Z,70.85
2019-05-03T07:15:40.102Z,71.86
2019-05-03T07:18:11.253Z,71.56
2019-05-03T07:20:44.618Z,70.53
2019-05-03T07:23:15.916Z,69.56
2019-05-03T07:25:46.932Z,70.17
2019-05-03T07:28:18.004Z,70.34
2019-05-03T07:30:49.127Z,70.74
2019-05-03T07:33:25.315Z,69.85
2019-05-03T07:35:55.943Z,69.34
2019-05-03T07:38:27.016Z,68.71
2019-05-03T07:40:57.946Z,66.85
2019-05-03T07:43:29.142Z,67.11
2019-05-03T07:46:00.068Z,68.11
2019-05-03T07:48:31.126Z,68.98
2019-05-03T07:51:02.202Z,68.33
2019-05-03T07:53:34.894Z,69.62
2019-05-03T07:56:10.451Z,67.88
2019-05-03T07:58:53.040Z,67.25
2019-05-03T08:01:21.011Z,66.90
2019-05-03T08:03:51.916Z,66.96
2019-05-03T08:06:24.714Z,67.88
2019-05-03T08:08:56.281Z,67.38
2019-05-03T08:11:27.334Z,68.51
2019-05-03T08:14:00.288Z,66.88
2019-05-03T08:16:31.590Z,67.03
2019-05-03T08:19:04.751Z,66.33
2019-05-03T08:21:38.168Z,66.51
2019-05-03T08:24:08.746Z,66.14
2019-05-03T08:26:39.678Z,67.17
2019-05-03T08:29:16.269Z,65.95
2019-05-03T08:31:54.652Z,65.92
2019-05-03T08:34:28.394Z,65.75
2019-05-03T08:37:01.341Z,64.90
2019-05-03T08:39:32.280Z,65.33
2019-05-03T08:42:05.236Z,65.27
2019-05-03T08:44:36.178Z,65.87
2019-05-03T08:47:07.483Z,65.97
2019-05-03T08:49:38.671Z,66.69
2019-05-03T08:52:09.820Z,66.29
2019-05-03T08:54:40.849Z,65.77
2019-05-03T08:57:11.816Z,65.80
2019-05-03T08:59:44.612Z,64.63
2019-05-03T09:02:17.782Z,64.54
2019-05-03T09:04:48.250Z,65.19
2019-05-03T09:07:19.322Z,64.69
2019-05-03T09:09:52.061Z,64.07
2019-05-03T09:12:25.047Z,64.36
2019-05-03T09:14:55.911Z,63.72
2019-05-03T09:17:26.881Z,63.43
2019-05-03T09:19:58.033Z,63.45
2019-05-03T09:22:28.911Z,62.75
2019-05-03T09:25:00.036Z,62.27
2019-05-03T09:27:31.001Z,61.68
2019-05-03T09:30:02.042Z,61.92
2019-05-03T09:32:34.918Z,60.34
2019-05-03T09:35:07.891Z,60.71
2019-05-03T09:37:38.865Z,59.78
2019-05-03T09:40:10.149Z,59.11
2019-05-03T09:42:41.346Z,57.10
2019-05-03T09:45:15.237Z,56.98
2019-05-03T09:47:45.843Z,54.06
2019-05-03T09:50:17.443Z,53.09
2019-05-03T09:52:48.794Z,54.34
2019-05-03T09:55:27.253Z,54.09
2019-05-03T09:57:58.438Z,52.92
2019-05-03T10:00:29.293Z,55.01
2019-05-03T10:03:01.300Z,55.40
2019-05-03T10:05:34.909Z,55.15
2019-05-03T10:08:05.458Z,55.17
2019-05-03T10:10:54.580Z,55.17
2019-05-03T10:13:27.096Z,54.60
2019-05-03T10:15:58.515Z,55.34
2019-05-03T10:18:29.897Z,55.62
2019-05-03T10:21:03.096Z,55.34
2019-05-03T10:23:35.778Z,54.82
2019-05-03T10:26:08.593Z,53.83
2019-05-03T10:28:40.041Z,54.44
2019-05-03T10:31:11.347Z,54.03
2019-05-03T10:33:44.969Z,53.28
2019-05-03T10:36:16.295Z,52.97
2019-05-03T10:38:47.412Z,52.65
2019-05-03T10:41:18.474Z,51.77
2019-05-03T10:43:49.544Z,50.82
2019-05-03T10:46:20.580Z,49.48
2019-05-03T10:48:51.646Z,48.69
2019-05-03T10:51:24.826Z,46.44
2019-05-03T10:53:57.855Z,45.25
2019-05-03T10:56:30.578Z,44.96
2019-05-03T10:59:03.310Z,46.57
2019-05-03T11:01:41.262Z,45.86
2019-05-03T11:04:12.315Z,44.91
2019-05-03T11:06:45.808Z,41.38
2019-05-03T11:09:16.624Z,38.10
2019-05-03T11:11:47.766Z,40.51
2019-05-03T11:14:19.295Z,36.35
2019-05-03T11:16:50.406Z,41.31
2019-05-03T11:19:21.634Z,40.92
2019-05-03T11:21:54.708Z,39.47
2019-05-03T11:24:27.554Z,38.34
2019-05-03T11:27:00.342Z,43.21
2019-05-03T11:29:31.946Z,45.29
2019-05-03T11:32:14.873Z,48.64
2019-05-03T11:34:49.405Z,48.16
2019-05-03T11:37:20.209Z,49.06
2019-05-03T11:39:52.349Z,51.12
2019-05-03T11:42:24.839Z,51.19
2019-05-03T11:44:55.879Z,52.46
2019-05-03T11:47:27.707Z,53.24
2019-05-03T11:49:58.907Z,55.93
2019-05-03T11:52:29.871Z,57.68
2019-05-03T11:55:01.373Z,58.21
2019-05-03T11:57:32.936Z,58.10
2019-05-03T12:00:07.091Z,58.56
2019-05-03T12:02:37.992Z,58.51
2019-05-03T12:05:20.307Z,58.72
2019-05-03T12:07:51.437Z,59.16
2019-05-03T12:10:36.368Z,60.33
2019-05-03T12:12:56.987Z,60.09
2019-05-03T12:15:27.999Z,61.13
2019-05-03T12:18:01.100Z,61.77
2019-05-03T12:20:36.963Z,62.07
2019-05-03T12:23:07.599Z,62.39
2019-05-03T12:25:40.037Z,62.32
2019-05-03T12:28:11.689Z,62.27
2019-05-03T12:30:44.889Z,63.56
2019-05-03T12:33:15.841Z,63.15
2019-05-03T12:35:47.009Z,62.17
2019-05-03T12:38:18.110Z,62.25
2019-05-03T12:40:49.250Z,62.61
2019-05-03T12:43:20.200Z,62.76
2019-05-03T12:45:51.299Z,63.72
2019-05-03T12:48:22.318Z,64.09
2019-05-03T12:50:53.789Z,64.56
2019-05-03T12:53:25.271Z,64.58
2019-05-03T12:55:56.384Z,63.03
2019-05-03T12:58:29.115Z,63.26
2019-05-03T13:01:05.082Z,63.03
2019-05-03T13:03:37.977Z,60.47
2019-05-03T13:06:08.960Z,60.74
2019-05-03T13:08:42.164Z,59.83
2019-05-03T13:11:13.333Z,62.16
2019-05-03T13:13:45.238Z,61.22
2019-05-03T13:16:18.557Z,58.79
2019-05-03T13:18:49.854Z,57.85
2019-05-03T13:21:21.202Z,57.64
2019-05-03T13:23:52.197Z,59.30
2019-05-03T13:26:25.288Z,58.89
2019-05-03T13:28:55.701Z,58.06
2019-05-03T13:31:26.805Z,58.57
2019-05-03T13:33:59.297Z,58.83
2019-05-03T13:36:30.259Z,60.21
2019-05-03T13:39:11.529Z,61.05
2019-05-03T13:41:34.931Z,61.45
2019-05-03T13:44:06.352Z,60.77
2019-05-03T13:46:37.619Z,59.94
2019-05-03T13:49:08.929Z,59.84
2019-05-03T13:51:39.916Z,59.09
2019-05-03T13:54:10.909Z,58.35
2019-05-03T13:56:42.263Z,59.43
2019-05-03T13:59:19.831Z,59.42
2019-05-03T14:01:46.034Z,58.53
2019-05-03T14:04:17.026Z,57.15
2019-05-03T14:06:47.891Z,56.67
2019-05-03T14:09:18.883Z,56.74
2019-05-03T14:11:49.963Z,56.04
2019-05-03T14:14:20.889Z,56.39
2019-05-03T14:16:52.030Z,58.03
2019-05-03T14:19:39.739Z,58.73
2019-05-03T14:22:12.436Z,58.24
2019-05-03T14:24:44.568Z,57.46
2019-05-03T14:27:17.192Z,58.13
2019-05-03T14:29:48.250Z,56.45
2019-05-03T14:32:26.670Z,55.89
2019-05-03T14:34:52.062Z,56.29
2019-05-03T14:37:23.293Z,57.05
2019-05-03T14:39:54.537Z,57.00
2019-05-03T14:42:25.568Z,56.87
2019-05-03T14:44:56.747Z,56.49
2019-05-03T14:47:28.083Z,56.96
2019-05-03T14:49:59.141Z,56.75
2019-05-03T14:52:30.346Z,56.97
2019-05-03T14:55:06.836Z,57.04
2019-05-03T14:57:45.892Z,57.47
2019-05-03T15:00:17.449Z,56.83
2019-05-03T15:02:58.033Z,56.48
2019-05-03T15:05:28.757Z,57.07
2019-05-03T15:07:59.757Z,57.66
2019-05-03T15:10:30.800Z,58.25
2019-05-03T15:13:01.878Z,57.88
2019-05-03T15:15:34.713Z,57.74
2019-05-03T15:18:07.719Z,57.78
2019-05-03T15:20:41.085Z,57.96
2019-05-03T15:23:11.222Z,58.57
2019-05-03T15:25:42.315Z,59.00
2019-05-03T15:28:13.390Z,59.08
2019-05-03T15:30:44.536Z,60.29
2019-05-03T15:33:15.776Z,59.42
2019-05-03T15:35:47.278Z,58.89
2019-05-03T15:38:18.353Z,58.88
2019-05-03T15:40:49.576Z,58.11
2019-05-03T15:43:22.169Z,55.77
2019-05-03T15:45:54.547Z,54.26
2019-05-03T15:48:27.393Z,54.22
2019-05-03T15:50:58.413Z,54.39
2019-05-03T15:53:29.365Z,53.84
2019-05-03T15:56:00.385Z,54.29
2019-05-03T15:58:31.330Z,54.03
2019-05-03T16:01:04.528Z,53.74
2019-05-03T16:03:35.809Z,53.83
2019-05-03T16:06:07.394Z,55.17
2019-05-03T16:08:38.473Z,55.71
2019-05-03T16:11:09.371Z,56.34
2019-05-03T16:13:40.502Z,56.94
2019-05-03T16:16:11.493Z,57.12
2019-05-03T16:18:44.490Z,57.50
2019-05-03T16:21:31.377Z,57.97
2019-05-03T16:24:02.375Z,58.76
2019-05-03T16:26:35.489Z,59.20
2019-05-03T16:29:07.881Z,59.23
2019-05-03T16:31:38.801Z,58.63
2019-05-03T16:34:09.771Z,58.07
2019-05-03T16:36:41.103Z,57.50
2019-05-03T16:39:12.243Z,56.68
2019-05-03T16:41:44.704Z,56.77
2019-05-03T16:44:16.543Z,56.33
2019-05-03T16:46:47.671Z,56.31
2019-05-03T16:49:18.782Z,56.75
2019-05-03T16:51:49.884Z,56.92
2019-05-03T16:54:20.936Z,56.87
2019-05-03T16:56:51.985Z,56.99
2019-05-03T16:59:24.788Z,57.21
2019-05-03T17:01:55.586Z,57.38
2019-05-03T17:04:28.338Z,57.65
2019-05-03T17:07:05.479Z,57.73
2019-05-03T17:09:36.492Z,58.50
2019-05-03T17:12:09.250Z,58.75
2019-05-03T17:14:40.355Z,57.68
2019-05-03T17:17:11.896Z,58.05
2019-05-03T17:19:44.713Z,58.33
2019-05-03T17:22:17.410Z,58.81
2019-05-03T17:24:48.612Z,58.80
2019-05-03T17:27:19.787Z,59.69
2019-05-03T17:29:50.884Z,59.59
2019-05-03T17:32:22.016Z,59.76
2019-05-03T17:34:54.791Z,59.38
2019-05-03T17:37:25.882Z,60.00
2019-05-03T17:39:59.572Z,60.60
2019-05-03T17:42:30.538Z,60.90
2019-05-03T17:45:01.538Z,61.14
2019-05-03T17:47:34.750Z,61.15
2019-05-03T17:50:07.536Z,61.00
2019-05-03T17:52:55.160Z,61.36
2019-05-03T17:55:38.720Z,61.76
2019-05-03T17:58:12.810Z,61.92
2019-05-03T18:01:00.639Z,62.15
2019-05-03T18:03:33.394Z,62.08
2019-05-03T18:06:22.497Z,62.36
2019-05-03T18:09:04.414Z,62.74
2019-05-03T18:11:42.189Z,63.41
2019-05-03T18:14:14.646Z,63.57
2019-05-03T18:16:45.755Z,62.91
2019-05-03T18:19:16.832Z,63.41
2019-05-03T18:21:47.861Z,63.24
2019-05-03T18:24:19.019Z,63.78
2019-05-03T18:27:19.677Z,63.82
2019-05-03T18:30:36.194Z,64.46
2019-05-03T18:33:08.266Z,63.95
2019-05-03T18:35:46.976Z,64.18
2019-05-03T18:39:08.940Z,64.23
2019-05-03T18:42:04.987Z,64.36
2019-05-03T18:44:49.642Z,64.57
2019-05-03T18:47:22.477Z,64.84
2019-05-03T18:49:54.975Z,64.57
2019-05-03T18:52:26.583Z,64.42
2019-05-03T18:54:57.488Z,65.03
2019-05-03T18:57:28.498Z,65.07
2019-05-03T18:59:59.644Z,64.61
2019-05-03T19:02:30.756Z,64.97
2019-05-03T19:05:01.783Z,64.92
2019-05-03T19:07:50.726Z,65.02
2019-05-03T19:10:35.829Z,65.40
2019-05-03T19:13:20.769Z,65.05
2019-05-03T19:15:51.867Z,64.73
2019-05-03T19:18:27.550Z,64.86
2019-05-03T19:20:58.907Z,65.28
2019-05-03T19:23:30.053Z,64.62
2019-05-03T19:26:01.309Z,64.81
2019-05-03T19:28:32.307Z,65.30
2019-05-03T19:31:05.253Z,65.39
2019-05-03T19:33:37.235Z,65.27
2019-05-03T19:36:08.632Z,65.37
2019-05-03T19:38:39.659Z,65.49
2019-05-03T19:41:10.850Z,65.21
2019-05-03T19:43:42.047Z,65.80
2019-05-03T19:46:44.374Z,65.85
2019-05-03T19:49:19.287Z,66.34
2019-05-03T19:51:50.584Z,67.08
2019-05-03T19:54:21.865Z,67.34
2019-05-03T19:56:55.486Z,67.77
2019-05-03T19:59:44.435Z,68.00
2019-05-03T20:02:35.321Z,67.57
2019-05-03T20:05:08.421Z,67.18
2019-05-03T20:07:42.361Z,67.71
2019-05-03T20:10:17.809Z,67.76
2019-05-03T20:12:48.209Z,68.12
2019-05-03T20:15:19.431Z,68.16
2019-05-03T20:17:57.396Z,68.21
2019-05-03T20:20:23.164Z,68.06
2019-05-03T20:23:00.321Z,68.63
2019-05-03T20:25:31.234Z,68.57
2019-05-03T20:28:04.873Z,68.16
2019-05-03T20:30:37.039Z,67.64
2019-05-03T20:33:08.649Z,67.87
2019-05-03T20:35:40.965Z,67.88
2019-05-03T20:38:15.266Z,68.31
2019-05-03T20:40:46.885Z,67.80
2019-05-03T20:43:28.465Z,68.01
2019-05-03T20:46:11.203Z,67.97
2019-05-03T20:48:47.382Z,68.43
2019-05-03T20:51:19.537Z,68.36
2019-05-03T20:53:50.644Z,68.01
2019-05-03T20:56:24.606Z,67.96
2019-05-03T20:58:55.985Z,68.53
2019-05-03T21:01:27.019Z,68.47
2019-05-03T21:03:57.952Z,68.25
2019-05-03T21:06:35.523Z,68.73
2019-05-03T21:09:02.011Z,68.05
2019-05-03T21:11:32.930Z,68.75
2019-05-03T21:14:04.774Z,68.63
2019-05-03T21:16:37.741Z,68.48
2019-05-03T21:19:19.283Z,68.09
2019-05-03T21:21:55.027Z,68.80
2019-05-03T21:24:26.254Z,68.56
2019-05-03T21:26:57.721Z,68.37
2019-05-03T21:29:28.976Z,68.58
2019-05-03T21:32:04.618Z,68.61
2019-05-03T21:34:36.840Z,68.54
2019-05-03T21:37:07.904Z,68.29
2019-05-03T21:39:38.913Z,68.44
2019-05-03T21:42:10.223Z,68.54
2019-05-03T21:44:41.359Z,68.53
2019-05-03T21:47:19.997Z,68.48
2019-05-03T21:49:53.097Z,68.44
2019-05-03T21:52:24.953Z,68.31
2019-05-03T21:54:57.126Z,68.36
2019-05-03T21:57:34.102Z,67.64
2019-05-03T22:00:08.832Z,68.19
2019-05-03T22:02:40.909Z,68.18
2019-05-03T22:05:14.262Z,68.74
2019-05-03T22:07:45.094Z,68.47
2019-05-03T22:10:22.556Z,68.74
2019-05-03T22:12:54.438Z,68.36
2019-05-03T22:15:48.790Z,68.56
2019-05-03T22:18:28.086Z,68.86
2019-05-03T22:21:09.437Z,69.05
2019-05-03T22:23:57.696Z,69.38
2019-05-03T22:26:46.346Z,69.61
2019-05-03T22:29:17.690Z,69.12
2019-05-03T22:31:48.841Z,69.51
2019-05-03T22:34:19.935Z,69.02
2019-05-03T22:36:50.977Z,69.89
2019-05-03T22:39:21.856Z,69.92
2019-05-03T22:41:52.845Z,69.60
2019-05-03T22:44:25.391Z,69.94
2019-05-03T22:46:56.656Z,69.87
2019-05-03T22:49:27.607Z,70.00
2019-05-03T22:51:58.612Z,69.92
2019-05-03T22:54:29.562Z,70.00
2019-05-03T22:57:00.504Z,70.31
2019-05-03T22:59:31.593Z,70.32
2019-05-03T23:02:02.865Z,70.14
2019-05-03T23:04:35.567Z,70.40
2019-05-03T23:07:06.846Z,70.79
2019-05-03T23:09:37.916Z,70.75
2019-05-03T23:12:08.967Z,70.43
2019-05-03T23:14:39.948Z,70.43
2019-05-03T23:17:10.842Z,70.29
2019-05-03T23:19:44.935Z,70.81
2019-05-03T23:22:24.626Z,70.82
2019-05-03T23:24:55.743Z,70.66
2019-05-03T23:27:26.684Z,70.78
2019-05-03T23:29:57.720Z,70.58
2019-05-03T23:32:28.824Z,70.42
2019-05-03T23:34:59.920Z,70.71
2019-05-03T23:37:34.477Z,70.76
2019-05-03T23:40:07.723Z,70.54
2019-05-03T23:42:38.960Z,71.25
2019-05-03T23:45:10.115Z,71.21
2019-05-03T23:47:45.692Z,72.36
2019-05-03T23:50:18.444Z,72.69
2019-05-03T23:52:49.386Z,72.71
2019-05-03T23:55:27.903Z,72.93
2019-05-03T23:57:58.838Z,73.11
